sensor_id;sensor_type;location;lat;lon;timestamp;temperature;humidity
17815;DHT22;9031;50.974;11.330;2024-03-23T00:53:32;8.50;99.90
17815;DHT22;9031;50.974;11.330;2024-03-23T00:55:59;8.50;99.90
17815;DHT22;9031;50.974;11.330;2024-03-23T00:58:24;8.50;99.90
17815;DHT22;9031;50.974;11.330;2024-03-23T01:00:50;8.40;99.90
17815;DHT22;9031;50.974;11.330;2024-03-23T01:03:15;8.40;99.90
17815;DHT22;9031;50.974;11.330;2024-03-23T01:05:40;8.30;99.90
17815;DHT22;9031;50.974;11.330;2024-03-23T01:08:06;8.10;99.90
17815;DHT22;9031;50.974;11.330;2024-03-23T01:10:32;7.70;99.90
17815;DHT22;9031;50.974;11.330;2024-03-23T01:12:57;7.80;99.90
17815;DHT22;9031;50.974;11.330;2024-03-23T01:15:22;8.10;99.90
17815;DHT22;9031;50.974;11.330;2024-03-23T01:17:48;8.20;99.90
17815;DHT22;9031;50.974;11.330;2024-03-23T01:20:13;8.10;99.90
17815;DHT22;9031;50.974;11.330;2024-03-23T01:22:39;8.20;99.90
17815;DHT22;9031;50.974;11.330;2024-03-23T01:25:05;8.30;99.90
17815;DHT22;9031;50.974;11.330;2024-03-23T01:27:30;8.40;99.90
17815;DHT22;9031;50.974;11.330;2024-03-23T01:29:56;8.50;99.90
17815;DHT22;9031;50.974;11.330;2024-03-23T01:32:21;8.40;99.90
17815;DHT22;9031;50.974;11.330;2024-03-23T01:34:47;8.40;99.90
17815;DHT22;9031;50.974;11.330;2024-03-23T01:37:12;8.30;99.90
17815;DHT22;9031;50.974;11.330;2024-03-23T01:39:38;8.30;99.90
17815;DHT22;9031;50.974;11.330;2024-03-23T01:42:03;8.20;99.90
17815;DHT22;9031;50.974;11.330;2024-03-23T01:44:29;8.30;99.90
17815;DHT22;9031;50.974;11.330;2024-03-23T01:46:55;8.30;99.90
17815;DHT22;9031;50.974;11.330;2024-03-23T01:49:20;8.10;99.90
17815;DHT22;9031;50.974;11.330;2024-03-23T01:51:46;7.90;99.90
17815;DHT22;9031;50.974;11.330;2024-03-23T01:54:12;7.60;99.90
17815;DHT22;9031;50.974;11.330;2024-03-23T01:56:38;7.70;99.90
17815;DHT22;9031;50.974;11.330;2024-03-23T01:59:06;7.80;99.90
17815;DHT22;9031;50.974;11.330;2024-03-23T02:01:33;7.70;99.90
17815;DHT22;9031;50.974;11.330;2024-03-23T02:03:59;7.10;99.90
17815;DHT22;9031;50.974;11.330;2024-03-23T02:06:25;7.30;99.90
17815;DHT22;9031;50.974;11.330;2024-03-23T02:08:51;7.30;99.90
17815;DHT22;9031;50.974;11.330;2024-03-23T02:11:16;7.30;99.90
17815;DHT22;9031;50.974;11.330;2024-03-23T02:13:42;7.10;99.90
17815;DHT22;9031;50.974;11.330;2024-03-23T02:16:07;6.70;99.90
17815;DHT22;9031;50.974;11.330;2024-03-23T02:18:34;6.70;99.90
17815;DHT22;9031;50.974;11.330;2024-03-23T02:20:59;6.80;99.90
17815;DHT22;9031;50.974;11.330;2024-03-23T02:23:25;6.60;99.90
17815;DHT22;9031;50.974;11.330;2024-03-23T02:25:50;6.80;99.90
17815;DHT22;9031;50.974;11.330;2024-03-23T02:28:16;7.10;99.90
17815;DHT22;9031;50.974;11.330;2024-03-23T02:30:42;6.90;99.90
17815;DHT22;9031;50.974;11.330;2024-03-23T02:33:08;7.00;99.90
17815;DHT22;9031;50.974;11.330;2024-03-23T02:35:34;7.10;99.90
17815;DHT22;9031;50.974;11.330;2024-03-23T02:37:59;6.50;99.90
17815;DHT22;9031;50.974;11.330;2024-03-23T02:40:25;6.10;99.90
17815;DHT22;9031;50.974;11.330;2024-03-23T02:42:51;6.10;99.90
17815;DHT22;9031;50.974;11.330;2024-03-23T02:45:17;6.20;99.90
17815;DHT22;9031;50.974;11.330;2024-03-23T02:47:42;6.70;99.90
17815;DHT22;9031;50.974;11.330;2024-03-23T02:50:08;7.00;99.90
17815;DHT22;9031;50.974;11.330;2024-03-23T02:52:35;7.30;99.90
17815;DHT22;9031;50.974;11.330;2024-03-23T02:55:00;7.50;99.90
17815;DHT22;9031;50.974;11.330;2024-03-23T02:57:27;7.70;99.90
17815;DHT22;9031;50.974;11.330;2024-03-23T02:59:53;7.60;99.90
17815;DHT22;9031;50.974;11.330;2024-03-23T03:02:18;7.60;99.90
17815;DHT22;9031;50.974;11.330;2024-03-23T03:04:43;7.70;99.90
17815;DHT22;9031;50.974;11.330;2024-03-23T03:07:09;8.00;99.90
17815;DHT22;9031;50.974;11.330;2024-03-23T03:09:34;8.10;99.90
17815;DHT22;9031;50.974;11.330;2024-03-23T03:12:01;8.00;99.90
17815;DHT22;9031;50.974;11.330;2024-03-23T03:14:27;8.30;99.90
17815;DHT22;9031;50.974;11.330;2024-03-23T03:16:53;8.20;99.90
17815;DHT22;9031;50.974;11.330;2024-03-23T03:19:19;8.10;99.90
17815;DHT22;9031;50.974;11.330;2024-03-23T03:21:44;8.20;99.90
17815;DHT22;9031;50.974;11.330;2024-03-23T03:24:10;8.30;99.90
17815;DHT22;9031;50.974;11.330;2024-03-23T03:26:35;8.40;99.90
17815;DHT22;9031;50.974;11.330;2024-03-23T03:29:00;8.40;99.90
17815;DHT22;9031;50.974;11.330;2024-03-23T03:31:26;8.50;99.90
17815;DHT22;9031;50.974;11.330;2024-03-23T03:33:52;8.40;99.90
17815;DHT22;9031;50.974;11.330;2024-03-23T03:36:17;8.40;99.90
17815;DHT22;9031;50.974;11.330;2024-03-23T03:38:43;8.50;99.90
17815;DHT22;9031;50.974;11.330;2024-03-23T03:41:08;8.40;99.90
17815;DHT22;9031;50.974;11.330;2024-03-23T03:43:34;8.40;99.90
17815;DHT22;9031;50.974;11.330;2024-03-23T03:46:00;8.50;99.90
17815;DHT22;9031;50.974;11.330;2024-03-23T03:48:26;8.70;99.90
17815;DHT22;9031;50.974;11.330;2024-03-23T03:50:52;8.80;99.90
17815;DHT22;9031;50.974;11.330;2024-03-23T03:53:18;8.90;99.90
17815;DHT22;9031;50.974;11.330;2024-03-23T03:55:44;9.00;99.90
17815;DHT22;9031;50.974;11.330;2024-03-23T03:58:09;8.90;99.90
17815;DHT22;9031;50.974;11.330;2024-03-23T04:00:35;8.90;99.90
17815;DHT22;9031;50.974;11.330;2024-03-23T04:03:01;8.60;99.90
17815;DHT22;9031;50.974;11.330;2024-03-23T04:05:26;8.70;99.90
17815;DHT22;9031;50.974;11.330;2024-03-23T04:07:52;8.70;99.90
17815;DHT22;9031;50.974;11.330;2024-03-23T04:10:17;8.70;99.90
17815;DHT22;9031;50.974;11.330;2024-03-23T04:12:43;8.40;99.90
17815;DHT22;9031;50.974;11.330;2024-03-23T04:15:09;8.60;99.90
17815;DHT22;9031;50.974;11.330;2024-03-23T04:17:35;8.70;99.90
17815;DHT22;9031;50.974;11.330;2024-03-23T04:20:01;8.70;99.90
17815;DHT22;9031;50.974;11.330;2024-03-23T04:22:28;8.90;99.90
17815;DHT22;9031;50.974;11.330;2024-03-23T04:24:54;8.90;99.90
17815;DHT22;9031;50.974;11.330;2024-03-23T04:27:20;8.80;99.90
17815;DHT22;9031;50.974;11.330;2024-03-23T04:29:52;8.80;99.90
17815;DHT22;9031;50.974;11.330;2024-03-23T04:32:20;8.80;99.90
17815;DHT22;9031;50.974;11.330;2024-03-23T04:34:46;8.70;99.90
17815;DHT22;9031;50.974;11.330;2024-03-23T04:37:11;8.50;99.90
17815;DHT22;9031;50.974;11.330;2024-03-23T04:39:37;8.50;99.90
17815;DHT22;9031;50.974;11.330;2024-03-23T04:42:04;8.50;99.90
17815;DHT22;9031;50.974;11.330;2024-03-23T04:44:29;8.70;99.90
17815;DHT22;9031;50.974;11.330;2024-03-23T04:46:56;8.90;99.90
17815;DHT22;9031;50.974;11.330;2024-03-23T04:49:22;9.00;99.90
17815;DHT22;9031;50.974;11.330;2024-03-23T04:51:47;8.90;99.90
17815;DHT22;9031;50.974;11.330;2024-03-23T04:54:13;8.70;99.90
17815;DHT22;9031;50.974;11.330;2024-03-23T04:56:38;8.60;99.90
17815;DHT22;9031;50.974;11.330;2024-03-23T04:59:04;8.80;99.90
17815;DHT22;9031;50.974;11.330;2024-03-23T05:01:30;8.70;99.90
17815;DHT22;9031;50.974;11.330;2024-03-23T05:03:57;8.80;99.90
17815;DHT22;9031;50.974;11.330;2024-03-23T05:06:22;8.80;99.90
17815;DHT22;9031;50.974;11.330;2024-03-23T05:08:48;8.80;99.90
17815;DHT22;9031;50.974;11.330;2024-03-23T05:11:13;8.40;99.90
17815;DHT22;9031;50.974;11.330;2024-03-23T05:13:39;8.30;99.90
17815;DHT22;9031;50.974;11.330;2024-03-23T05:16:05;8.40;99.90
17815;DHT22;9031;50.974;11.330;2024-03-23T05:18:30;8.50;99.90
17815;DHT22;9031;50.974;11.330;2024-03-23T05:20:57;8.60;99.90
17815;DHT22;9031;50.974;11.330;2024-03-23T05:23:23;8.70;99.90
17815;DHT22;9031;50.974;11.330;2024-03-23T05:25:48;8.60;99.90
17815;DHT22;9031;50.974;11.330;2024-03-23T05:28:14;8.60;99.90
17815;DHT22;9031;50.974;11.330;2024-03-23T05:30:39;8.70;99.90
17815;DHT22;9031;50.974;11.330;2024-03-23T05:33:05;8.80;99.90
17815;DHT22;9031;50.974;11.330;2024-03-23T05:35:31;8.80;99.90
17815;DHT22;9031;50.974;11.330;2024-03-23T05:37:57;8.80;99.90
17815;DHT22;9031;50.974;11.330;2024-03-23T05:40:24;8.80;99.90
17815;DHT22;9031;50.974;11.330;2024-03-23T05:42:50;8.80;99.90
17815;DHT22;9031;50.974;11.330;2024-03-23T05:45:18;8.80;99.90
17815;DHT22;9031;50.974;11.330;2024-03-23T05:47:44;8.80;99.90
17815;DHT22;9031;50.974;11.330;2024-03-23T05:50:10;8.90;99.90
17815;DHT22;9031;50.974;11.330;2024-03-23T05:52:38;8.80;99.90
17815;DHT22;9031;50.974;11.330;2024-03-23T05:55:04;8.70;99.90
17815;DHT22;9031;50.974;11.330;2024-03-23T05:57:30;8.80;99.90
17815;DHT22;9031;50.974;11.330;2024-03-23T05:59:55;8.80;99.90
17815;DHT22;9031;50.974;11.330;2024-03-23T06:02:22;8.70;99.90
17815;DHT22;9031;50.974;11.330;2024-03-23T06:04:47;8.60;99.90
17815;DHT22;9031;50.974;11.330;2024-03-23T06:07:13;8.70;99.90
17815;DHT22;9031;50.974;11.330;2024-03-23T06:09:42;8.80;99.90
17815;DHT22;9031;50.974;11.330;2024-03-23T06:12:08;8.60;99.90
17815;DHT22;9031;50.974;11.330;2024-03-23T06:14:35;8.70;99.90
17815;DHT22;9031;50.974;11.330;2024-03-23T06:17:00;8.60;99.90
17815;DHT22;9031;50.974;11.330;2024-03-23T06:19:27;8.70;99.90
17815;DHT22;9031;50.974;11.330;2024-03-23T06:21:53;8.80;99.90
17815;DHT22;9031;50.974;11.330;2024-03-23T06:24:20;8.90;99.90
17815;DHT22;9031;50.974;11.330;2024-03-23T06:26:45;8.90;99.90
17815;DHT22;9031;50.974;11.330;2024-03-23T06:29:11;8.90;99.90
17815;DHT22;9031;50.974;11.330;2024-03-23T06:31:36;9.10;99.90
17815;DHT22;9031;50.974;11.330;2024-03-23T06:34:02;9.00;99.90
17815;DHT22;9031;50.974;11.330;2024-03-23T06:36:27;9.10;99.90
17815;DHT22;9031;50.974;11.330;2024-03-23T06:38:53;9.10;99.90
17815;DHT22;9031;50.974;11.330;2024-03-23T06:41:19;9.00;99.90
17815;DHT22;9031;50.974;11.330;2024-03-23T06:43:44;9.00;99.90
17815;DHT22;9031;50.974;11.330;2024-03-23T06:46:10;9.00;99.90
17815;DHT22;9031;50.974;11.330;2024-03-23T06:48:35;8.80;99.90
17815;DHT22;9031;50.974;11.330;2024-03-23T06:51:01;8.60;99.90
17815;DHT22;9031;50.974;11.330;2024-03-23T06:53:26;8.40;99.90
17815;DHT22;9031;50.974;11.330;2024-03-23T06:55:53;8.20;99.90
17815;DHT22;9031;50.974;11.330;2024-03-23T06:58:20;8.10;99.90
17815;DHT22;9031;50.974;11.330;2024-03-23T07:00:45;8.10;99.90
17815;DHT22;9031;50.974;11.330;2024-03-23T07:03:11;8.00;99.90
17815;DHT22;9031;50.974;11.330;2024-03-23T07:05:37;7.70;99.90
17815;DHT22;9031;50.974;11.330;2024-03-23T07:08:03;7.60;99.90
17815;DHT22;9031;50.974;11.330;2024-03-23T07:10:28;7.50;99.90
17815;DHT22;9031;50.974;11.330;2024-03-23T07:12:54;7.40;99.90
17815;DHT22;9031;50.974;11.330;2024-03-23T07:15:19;7.20;99.90
17815;DHT22;9031;50.974;11.330;2024-03-23T07:17:47;7.10;99.90
17815;DHT22;9031;50.974;11.330;2024-03-23T07:20:13;7.20;99.90
17815;DHT22;9031;50.974;11.330;2024-03-23T07:22:38;7.10;99.90
17815;DHT22;9031;50.974;11.330;2024-03-23T07:25:05;6.90;99.90
17815;DHT22;9031;50.974;11.330;2024-03-23T07:27:30;6.70;99.90
17815;DHT22;9031;50.974;11.330;2024-03-23T07:29:56;6.50;99.90
17815;DHT22;9031;50.974;11.330;2024-03-23T07:32:21;6.50;99.90
17815;DHT22;9031;50.974;11.330;2024-03-23T07:34:47;6.60;99.90
17815;DHT22;9031;50.974;11.330;2024-03-23T07:37:12;6.50;99.90
17815;DHT22;9031;50.974;11.330;2024-03-23T07:39:39;6.40;99.90
17815;DHT22;9031;50.974;11.330;2024-03-23T07:42:05;6.30;99.90
17815;DHT22;9031;50.974;11.330;2024-03-23T07:44:31;6.20;99.90
17815;DHT22;9031;50.974;11.330;2024-03-23T07:46:56;6.10;99.90
17815;DHT22;9031;50.974;11.330;2024-03-23T07:49:22;6.00;99.90
17815;DHT22;9031;50.974;11.330;2024-03-23T07:51:47;6.00;99.90
17815;DHT22;9031;50.974;11.330;2024-03-23T07:54:13;5.90;99.90
17815;DHT22;9031;50.974;11.330;2024-03-23T07:56:38;6.00;99.90
17815;DHT22;9031;50.974;11.330;2024-03-23T07:59:04;6.10;99.90
17815;DHT22;9031;50.974;11.330;2024-03-23T08:01:29;6.10;99.90
17815;DHT22;9031;50.974;11.330;2024-03-23T08:03:55;6.10;99.90
17815;DHT22;9031;50.974;11.330;2024-03-23T08:06:21;6.20;99.90
17815;DHT22;9031;50.974;11.330;2024-03-23T08:08:50;6.30;99.90
17815;DHT22;9031;50.974;11.330;2024-03-23T08:11:16;6.30;99.90
17815;DHT22;9031;50.974;11.330;2024-03-23T08:13:44;6.20;99.90
17815;DHT22;9031;50.974;11.330;2024-03-23T08:16:10;6.20;99.90
17815;DHT22;9031;50.974;11.330;2024-03-23T08:18:35;6.10;99.90
17815;DHT22;9031;50.974;11.330;2024-03-23T08:21:05;6.00;99.90
17815;DHT22;9031;50.974;11.330;2024-03-23T08:23:33;5.80;99.90
17815;DHT22;9031;50.974;11.330;2024-03-23T08:26:12;5.70;99.90
17815;DHT22;9031;50.974;11.330;2024-03-23T08:28:38;5.70;99.90
17815;DHT22;9031;50.974;11.330;2024-03-23T08:31:06;5.70;99.90
17815;DHT22;9031;50.974;11.330;2024-03-23T08:33:32;5.80;99.90
17815;DHT22;9031;50.974;11.330;2024-03-23T08:36:02;5.70;99.90
17815;DHT22;9031;50.974;11.330;2024-03-23T08:38:28;5.60;99.90
17815;DHT22;9031;50.974;11.330;2024-03-23T08:41:12;5.30;99.90
17815;DHT22;9031;50.974;11.330;2024-03-23T08:43:41;5.20;99.90
17815;DHT22;9031;50.974;11.330;2024-03-23T08:46:07;5.20;99.90
17815;DHT22;9031;50.974;11.330;2024-03-23T08:48:39;5.10;99.90
17815;DHT22;9031;50.974;11.330;2024-03-23T08:51:06;5.00;99.90
17815;DHT22;9031;50.974;11.330;2024-03-23T08:53:33;4.90;99.90
17815;DHT22;9031;50.974;11.330;2024-03-23T08:56:00;4.80;99.90
17815;DHT22;9031;50.974;11.330;2024-03-23T08:58:26;4.80;99.90
17815;DHT22;9031;50.974;11.330;2024-03-23T09:00:54;4.90;99.90
17815;DHT22;9031;50.974;11.330;2024-03-23T09:03:25;5.00;99.90
17815;DHT22;9031;50.974;11.330;2024-03-23T09:05:52;5.00;99.90
17815;DHT22;9031;50.974;11.330;2024-03-23T09:08:18;5.10;99.90
17815;DHT22;9031;50.974;11.330;2024-03-23T09:10:43;5.20;99.90
17815;DHT22;9031;50.974;11.330;2024-03-23T09:13:09;5.10;99.90
17815;DHT22;9031;50.974;11.330;2024-03-23T09:15:36;5.10;99.90
17815;DHT22;9031;50.974;11.330;2024-03-23T09:18:02;5.00;99.90
17815;DHT22;9031;50.974;11.330;2024-03-23T09:20:28;4.70;99.90
17815;DHT22;9031;50.974;11.330;2024-03-23T09:22:53;4.60;99.90
17815;DHT22;9031;50.974;11.330;2024-03-23T09:25:19;4.70;99.90
17815;DHT22;9031;50.974;11.330;2024-03-23T09:27:48;4.90;99.90
17815;DHT22;9031;50.974;11.330;2024-03-23T09:30:13;5.10;99.90
17815;DHT22;9031;50.974;11.330;2024-03-23T09:32:41;5.30;99.90
17815;DHT22;9031;50.974;11.330;2024-03-23T09:35:06;5.40;99.90
17815;DHT22;9031;50.974;11.330;2024-03-23T09:37:32;5.30;99.90
17815;DHT22;9031;50.974;11.330;2024-03-23T09:39:57;5.40;99.90
17815;DHT22;9031;50.974;11.330;2024-03-23T09:42:23;5.40;99.90
17815;DHT22;9031;50.974;11.330;2024-03-23T09:44:51;5.40;99.90
17815;DHT22;9031;50.974;11.330;2024-03-23T09:47:16;5.30;99.90
17815;DHT22;9031;50.974;11.330;2024-03-23T09:49:42;5.50;99.90
17815;DHT22;9031;50.974;11.330;2024-03-23T09:52:08;5.50;99.90
17815;DHT22;9031;50.974;11.330;2024-03-23T09:54:33;5.40;99.90
17815;DHT22;9031;50.974;11.330;2024-03-23T09:56:59;5.70;99.90
17815;DHT22;9031;50.974;11.330;2024-03-23T09:59:24;5.60;99.90
17815;DHT22;9031;50.974;11.330;2024-03-23T10:01:52;5.40;99.90
17815;DHT22;9031;50.974;11.330;2024-03-23T10:04:43;5.40;99.90
17815;DHT22;9031;50.974;11.330;2024-03-23T10:07:17;5.40;99.90
17815;DHT22;9031;50.974;11.330;2024-03-23T10:09:43;5.30;99.90
17815;DHT22;9031;50.974;11.330;2024-03-23T10:12:13;5.40;99.90
17815;DHT22;9031;50.974;11.330;2024-03-23T10:14:39;5.50;99.90
17815;DHT22;9031;50.974;11.330;2024-03-23T10:17:16;5.40;99.90
17815;DHT22;9031;50.974;11.330;2024-03-23T10:19:45;5.60;99.90
17815;DHT22;9031;50.974;11.330;2024-03-23T10:22:23;5.90;99.90
17815;DHT22;9031;50.974;11.330;2024-03-23T10:24:52;6.30;99.90
17815;DHT22;9031;50.974;11.330;2024-03-23T10:27:21;6.70;99.90
17815;DHT22;9031;50.974;11.330;2024-03-23T10:29:50;7.00;99.90
17815;DHT22;9031;50.974;11.330;2024-03-23T10:32:17;8.40;99.90
17815;DHT22;9031;50.974;11.330;2024-03-23T10:34:43;9.00;99.90
17815;DHT22;9031;50.974;11.330;2024-03-23T10:37:09;8.70;99.90
17815;DHT22;9031;50.974;11.330;2024-03-23T10:39:41;8.90;99.90
17815;DHT22;9031;50.974;11.330;2024-03-23T10:42:09;9.10;99.90
17815;DHT22;9031;50.974;11.330;2024-03-23T10:44:37;9.40;99.90
17815;DHT22;9031;50.974;11.330;2024-03-23T10:47:04;9.50;99.90
17815;DHT22;9031;50.974;11.330;2024-03-23T10:49:34;9.90;99.90
17815;DHT22;9031;50.974;11.330;2024-03-23T10:52:03;10.30;99.90
17815;DHT22;9031;50.974;11.330;2024-03-23T10:54:31;9.50;99.90
17815;DHT22;9031;50.974;11.330;2024-03-23T10:57:11;9.60;99.90
17815;DHT22;9031;50.974;11.330;2024-03-23T10:59:38;9.30;99.90
17815;DHT22;9031;50.974;11.330;2024-03-23T11:02:04;8.90;99.90
17815;DHT22;9031;50.974;11.330;2024-03-23T11:04:34;8.70;99.90
17815;DHT22;9031;50.974;11.330;2024-03-23T11:07:01;9.10;99.90
17815;DHT22;9031;50.974;11.330;2024-03-23T11:09:38;10.40;99.90
17815;DHT22;9031;50.974;11.330;2024-03-23T11:14:53;12.40;99.90
17815;DHT22;9031;50.974;11.330;2024-03-23T11:17:20;11.90;99.90
17815;DHT22;9031;50.974;11.330;2024-03-23T11:27:38;8.50;99.90
17815;DHT22;9031;50.974;11.330;2024-03-23T11:30:29;8.10;99.90
17815;DHT22;9031;50.974;11.330;2024-03-23T11:32:56;8.20;99.90
17815;DHT22;9031;50.974;11.330;2024-03-23T11:35:35;8.30;99.90
17815;DHT22;9031;50.974;11.330;2024-03-23T11:38:02;8.50;99.90
17815;DHT22;9031;50.974;11.330;2024-03-23T11:40:28;9.20;99.90
17815;DHT22;9031;50.974;11.330;2024-03-23T11:42:59;10.50;99.90
17815;DHT22;9031;50.974;11.330;2024-03-23T11:45:25;10.80;99.90
17815;DHT22;9031;50.974;11.330;2024-03-23T11:48:02;10.70;99.90
17815;DHT22;9031;50.974;11.330;2024-03-23T11:50:28;9.80;99.90
17815;DHT22;9031;50.974;11.330;2024-03-23T11:53:18;9.30;99.90
17815;DHT22;9031;50.974;11.330;2024-03-23T11:55:52;8.90;99.90
17815;DHT22;9031;50.974;11.330;2024-03-23T11:58:22;8.60;99.90
17815;DHT22;9031;50.974;11.330;2024-03-23T12:00:52;8.40;99.90
17815;DHT22;9031;50.974;11.330;2024-03-23T12:03:19;8.30;99.90
17815;DHT22;9031;50.974;11.330;2024-03-23T12:05:50;8.20;99.90
17815;DHT22;9031;50.974;11.330;2024-03-23T12:08:29;8.10;99.90
17815;DHT22;9031;50.974;11.330;2024-03-23T12:11:17;8.10;99.90
17815;DHT22;9031;50.974;11.330;2024-03-23T12:13:44;7.90;99.90
17815;DHT22;9031;50.974;11.330;2024-03-23T12:18:41;7.40;99.90
17815;DHT22;9031;50.974;11.330;2024-03-23T12:21:07;7.40;99.90
17815;DHT22;9031;50.974;11.330;2024-03-23T12:23:33;7.40;99.90
17815;DHT22;9031;50.974;11.330;2024-03-23T12:25:59;7.80;99.90
17815;DHT22;9031;50.974;11.330;2024-03-23T12:28:24;8.00;99.90
17815;DHT22;9031;50.974;11.330;2024-03-23T12:30:51;7.90;99.90
17815;DHT22;9031;50.974;11.330;2024-03-23T12:33:17;7.60;99.90
17815;DHT22;9031;50.974;11.330;2024-03-23T12:35:43;7.50;99.90
17815;DHT22;9031;50.974;11.330;2024-03-23T12:38:08;7.70;99.90
17815;DHT22;9031;50.974;11.330;2024-03-23T12:40:34;7.80;99.90
17815;DHT22;9031;50.974;11.330;2024-03-23T12:42:59;9.20;99.90
17815;DHT22;9031;50.974;11.330;2024-03-23T12:45:24;10.50;99.90
17815;DHT22;9031;50.974;11.330;2024-03-23T12:47:50;11.70;99.90
17815;DHT22;9031;50.974;11.330;2024-03-23T12:50:19;14.00;99.90
17815;DHT22;9031;50.974;11.330;2024-03-23T12:52:45;16.20;99.90
17815;DHT22;9031;50.974;11.330;2024-03-23T12:55:10;17.10;99.80
17815;DHT22;9031;50.974;11.330;2024-03-23T12:57:36;17.90;98.10
17815;DHT22;9031;50.974;11.330;2024-03-23T13:00:01;16.40;97.00
17815;DHT22;9031;50.974;11.330;2024-03-23T13:02:28;13.50;99.50
17815;DHT22;9031;50.974;11.330;2024-03-23T13:04:54;11.80;99.90
17815;DHT22;9031;50.974;11.330;2024-03-23T13:07:21;12.20;99.90
17815;DHT22;9031;50.974;11.330;2024-03-23T13:09:47;13.80;99.90
17815;DHT22;9031;50.974;11.330;2024-03-23T13:12:12;14.60;99.90
17815;DHT22;9031;50.974;11.330;2024-03-23T13:14:39;16.40;97.60
17815;DHT22;9031;50.974;11.330;2024-03-23T13:17:05;16.50;96.00
17815;DHT22;9031;50.974;11.330;2024-03-23T13:19:31;16.20;93.90
17815;DHT22;9031;50.974;11.330;2024-03-23T13:21:57;14.50;94.80
17815;DHT22;9031;50.974;11.330;2024-03-23T13:24:24;12.50;96.80
17815;DHT22;9031;50.974;11.330;2024-03-23T13:26:50;11.50;99.10
17815;DHT22;9031;50.974;11.330;2024-03-23T13:29:17;13.40;97.80
17815;DHT22;9031;50.974;11.330;2024-03-23T13:31:42;14.90;95.70
17815;DHT22;9031;50.974;11.330;2024-03-23T13:34:08;15.90;93.20
17815;DHT22;9031;50.974;11.330;2024-03-23T13:36:33;16.90;93.80
17815;DHT22;9031;50.974;11.330;2024-03-23T13:38:58;18.50;90.90
17815;DHT22;9031;50.974;11.330;2024-03-23T13:41:24;16.40;90.10
17815;DHT22;9031;50.974;11.330;2024-03-23T13:43:50;14.00;93.40
17815;DHT22;9031;50.974;11.330;2024-03-23T13:46:15;14.50;95.10
17815;DHT22;9031;50.974;11.330;2024-03-23T13:48:41;16.60;92.50
17815;DHT22;9031;50.974;11.330;2024-03-23T13:51:07;16.50;91.20
17815;DHT22;9031;50.974;11.330;2024-03-23T13:53:33;17.30;90.30
17815;DHT22;9031;50.974;11.330;2024-03-23T13:55:58;18.40;88.00
17815;DHT22;9031;50.974;11.330;2024-03-23T13:58:24;16.00;91.10
17815;DHT22;9031;50.974;11.330;2024-03-23T14:00:53;14.20;93.40
17815;DHT22;9031;50.974;11.330;2024-03-23T14:03:18;13.90;94.70
17815;DHT22;9031;50.974;11.330;2024-03-23T14:05:44;13.30;93.90
17815;DHT22;9031;50.974;11.330;2024-03-23T14:08:10;12.20;94.50
17815;DHT22;9031;50.974;11.330;2024-03-23T14:10:36;11.50;95.20
17815;DHT22;9031;50.974;11.330;2024-03-23T14:13:02;11.00;96.00
17815;DHT22;9031;50.974;11.330;2024-03-23T14:15:30;10.50;97.30
17815;DHT22;9031;50.974;11.330;2024-03-23T14:17:56;10.00;99.60
17815;DHT22;9031;50.974;11.330;2024-03-23T14:20:22;9.10;99.90
17815;DHT22;9031;50.974;11.330;2024-03-23T14:22:49;7.70;99.90
17815;DHT22;9031;50.974;11.330;2024-03-23T14:25:14;6.90;99.90
17815;DHT22;9031;50.974;11.330;2024-03-23T14:27:40;6.50;99.90
17815;DHT22;9031;50.974;11.330;2024-03-23T14:30:06;6.50;99.90
17815;DHT22;9031;50.974;11.330;2024-03-23T14:32:32;6.40;99.90
17815;DHT22;9031;50.974;11.330;2024-03-23T14:35:00;6.50;99.90
17815;DHT22;9031;50.974;11.330;2024-03-23T14:37:26;7.50;99.90
17815;DHT22;9031;50.974;11.330;2024-03-23T14:39:52;8.90;99.90
17815;DHT22;9031;50.974;11.330;2024-03-23T14:42:17;10.00;99.90
17815;DHT22;9031;50.974;11.330;2024-03-23T14:44:43;10.60;99.90
17815;DHT22;9031;50.974;11.330;2024-03-23T14:47:08;11.40;99.90
17815;DHT22;9031;50.974;11.330;2024-03-23T14:49:34;11.00;99.90
17815;DHT22;9031;50.974;11.330;2024-03-23T14:51:59;10.80;99.90
17815;DHT22;9031;50.974;11.330;2024-03-23T14:54:25;10.40;99.90
17815;DHT22;9031;50.974;11.330;2024-03-23T14:56:50;10.20;99.90
17815;DHT22;9031;50.974;11.330;2024-03-23T14:59:15;10.40;99.90
17815;DHT22;9031;50.974;11.330;2024-03-23T15:01:41;10.60;99.90
17815;DHT22;9031;50.974;11.330;2024-03-23T15:04:07;10.60;99.90
17815;DHT22;9031;50.974;11.330;2024-03-23T15:06:32;11.20;99.90
17815;DHT22;9031;50.974;11.330;2024-03-23T15:08:59;11.90;99.90
17815;DHT22;9031;50.974;11.330;2024-03-23T15:11:24;12.20;99.90
17815;DHT22;9031;50.974;11.330;2024-03-23T15:13:50;12.30;99.90
17815;DHT22;9031;50.974;11.330;2024-03-23T15:16:19;12.00;99.90
17815;DHT22;9031;50.974;11.330;2024-03-23T15:18:47;12.10;99.90
17815;DHT22;9031;50.974;11.330;2024-03-23T15:21:13;11.50;99.90
17815;DHT22;9031;50.974;11.330;2024-03-23T15:23:45;11.20;99.90
17815;DHT22;9031;50.974;11.330;2024-03-23T15:26:10;10.80;99.90
17815;DHT22;9031;50.974;11.330;2024-03-23T15:28:36;10.20;99.90
17815;DHT22;9031;50.974;11.330;2024-03-23T15:31:27;10.60;99.90
17815;DHT22;9031;50.974;11.330;2024-03-23T15:33:52;11.50;99.90
17815;DHT22;9031;50.974;11.330;2024-03-23T15:36:18;11.30;99.90
17815;DHT22;9031;50.974;11.330;2024-03-23T15:38:44;10.50;99.90
17815;DHT22;9031;50.974;11.330;2024-03-23T15:41:10;9.70;99.90
17815;DHT22;9031;50.974;11.330;2024-03-23T15:43:35;9.30;99.90
17815;DHT22;9031;50.974;11.330;2024-03-23T15:46:02;9.10;99.90
17815;DHT22;9031;50.974;11.330;2024-03-23T15:48:29;9.00;99.90
17815;DHT22;9031;50.974;11.330;2024-03-23T15:50:59;8.70;99.90
17815;DHT22;9031;50.974;11.330;2024-03-23T15:53:25;8.20;99.90
17815;DHT22;9031;50.974;11.330;2024-03-23T15:56:02;8.00;99.90
17815;DHT22;9031;50.974;11.330;2024-03-23T15:58:29;7.30;99.90
17815;DHT22;9031;50.974;11.330;2024-03-23T16:00:55;7.10;99.90
17815;DHT22;9031;50.974;11.330;2024-03-23T16:03:22;6.90;99.90
17815;DHT22;9031;50.974;11.330;2024-03-23T16:05:56;7.00;99.90
17815;DHT22;9031;50.974;11.330;2024-03-23T16:08:22;7.30;99.90
17815;DHT22;9031;50.974;11.330;2024-03-23T16:10:48;7.50;99.90
17815;DHT22;9031;50.974;11.330;2024-03-23T16:13:14;7.40;99.90
17815;DHT22;9031;50.974;11.330;2024-03-23T16:15:40;7.20;99.90
17815;DHT22;9031;50.974;11.330;2024-03-23T16:18:06;7.10;99.90
17815;DHT22;9031;50.974;11.330;2024-03-23T16:20:31;7.90;99.90
17815;DHT22;9031;50.974;11.330;2024-03-23T16:22:59;8.30;99.90
17815;DHT22;9031;50.974;11.330;2024-03-23T16:25:24;8.50;99.90
17815;DHT22;9031;50.974;11.330;2024-03-23T16:27:50;8.60;99.90
17815;DHT22;9031;50.974;11.330;2024-03-23T16:30:15;9.10;99.90
17815;DHT22;9031;50.974;11.330;2024-03-23T16:32:41;9.50;99.90
17815;DHT22;9031;50.974;11.330;2024-03-23T16:35:07;9.20;99.90
17815;DHT22;9031;50.974;11.330;2024-03-23T16:37:35;8.90;99.90
17815;DHT22;9031;50.974;11.330;2024-03-23T16:40:00;8.70;99.90
17815;DHT22;9031;50.974;11.330;2024-03-23T16:42:26;8.50;99.90
17815;DHT22;9031;50.974;11.330;2024-03-23T16:44:52;8.40;99.90